Time;durP1;ratioP1;P1;durP2;ratioP2;P2;SDS_P1;SDS_P2;PMS_P1;PMS_P2;Temp;Humidity;BMP_temperature;BMP_pressure;BME280_temperature;BME280_humidity;BME280_pressure;Samples;Min_cycle;Max_cycle;Signal;HPM_P1;HPM_P2
2021/04/30 00:05:06;;;;;;;9.90;2.58;;;13.70;55.50;;;;;;20836041;28;20058;-65
2021/04/30 00:15:08;;;;;;;5.43;2.60;;;13.60;55.60;;;;;;20835441;28;20053;-64
2021/04/30 00:25:10;;;;;;;10.52;3.40;;;13.40;56.00;;;;;;20833553;28;20091;-67
2021/04/30 00:35:12;;;;;;;5.68;2.47;;;13.40;56.50;;;;;;20832704;28;20064;-56
2021/04/30 00:45:19;;;;;;;7.18;2.28;;;13.30;56.90;;;;;;20832623;28;20128;-56
2021/04/30 00:55:21;;;;;;;5.72;2.30;;;13.20;57.00;;;;;;20832945;28;20053;-56
2021/04/30 01:05:23;;;;;;;8.23;3.13;;;13.00;57.40;;;;;;20833170;28;20410;-56
2021/04/30 01:15:25;;;;;;;4.50;2.30;;;13.00;57.40;;;;;;20831578;28;20485;-57
2021/04/30 01:25:29;;;;;;;5.90;2.40;;;13.00;57.70;;;;;;20829827;28;20049;-56
2021/04/30 01:35:33;;;;;;;4.27;2.00;;;13.00;58.20;;;;;;20830191;28;20042;-65
2021/04/30 01:45:40;;;;;;;5.30;1.95;;;13.00;58.00;;;;;;20830514;28;20057;-68
2021/04/30 01:55:43;;;;;;;4.75;1.92;;;12.90;58.20;;;;;;20830248;28;20115;-55
2021/04/30 02:05:44;;;;;;;4.15;1.85;;;12.80;58.30;;;;;;20828332;28;20081;-56
2021/04/30 02:15:47;;;;;;;7.03;2.65;;;12.70;58.10;;;;;;20828999;28;20496;-56
2021/04/30 02:25:49;;;;;;;6.22;1.80;;;12.60;58.70;;;;;;20827144;28;20050;-57
2021/04/30 02:35:50;;;;;;;4.22;1.63;;;12.50;59.30;;;;;;20835482;28;20138;-60
2021/04/30 02:45:52;;;;;;;8.80;2.05;;;12.50;59.00;;;;;;20842026;28;20457;-66
2021/04/30 02:55:53;;;;;;;5.15;1.88;;;12.40;59.10;;;;;;20841147;28;20073;-68
2021/04/30 03:05:55;;;;;;;4.90;1.70;;;12.30;59.20;;;;;;20840859;28;20147;-54
2021/04/30 03:15:56;;;;;;;2.88;1.73;;;12.20;59.50;;;;;;20840171;28;20045;-64
2021/04/30 03:25:58;;;;;;;8.60;1.95;;;12.20;59.60;;;;;;20838864;28;20049;-62
2021/04/30 03:35:59;;;;;;;4.40;1.88;;;12.20;59.80;;;;;;20844593;28;20382;-67
2021/04/30 03:46:00;;;;;;;5.45;1.80;;;12.20;59.60;;;;;;20843535;28;20054;-55
2021/04/30 03:56:01;;;;;;;6.82;2.35;;;12.20;59.70;;;;;;20835738;28;20076;-55
2021/04/30 04:06:03;;;;;;;5.70;2.10;;;12.30;59.60;;;;;;20834702;28;20054;-64
2021/04/30 04:16:05;;;;;;;5.95;2.47;;;12.20;59.60;;;;;;20834830;28;20509;-66
2021/04/30 04:26:06;;;;;;;6.82;3.08;;;12.20;60.10;;;;;;20832812;28;20509;-56
2021/04/30 04:36:07;;;;;;;8.77;3.20;;;12.00;60.80;;;;;;20832263;28;20052;-56
2021/04/30 04:46:09;;;;;;;7.20;2.50;;;11.80;61.30;;;;;;20831677;28;20135;-67
2021/04/30 04:56:10;;;;;;;8.25;2.78;;;11.70;61.60;;;;;;20830706;28;20046;-57
2021/04/30 05:06:12;;;;;;;7.57;3.50;;;11.70;61.70;;;;;;20830492;28;20179;-56
2021/04/30 05:16:13;;;;;;;10.32;5.35;;;11.70;62.20;;;;;;20831582;28;20465;-57
2021/04/30 05:26:15;;;;;;;8.45;4.18;;;11.60;62.60;;;;;;20829449;28;20467;-56
2021/04/30 05:36:17;;;;;;;10.38;5.63;;;11.40;62.90;;;;;;20829379;28;20506;-66
2021/04/30 05:46:18;;;;;;;8.63;5.20;;;11.40;62.70;;;;;;20828978;28;20160;-56
2021/04/30 05:56:19;;;;;;;10.80;5.65;;;11.40;62.80;;;;;;20828116;28;20136;-56
2021/04/30 06:06:21;;;;;;;7.47;5.20;;;11.40;62.80;;;;;;20827622;28;20053;-66
2021/04/30 06:16:22;;;;;;;11.65;5.20;;;11.60;62.60;;;;;;20843151;28;20064;-66
2021/04/30 06:26:23;;;;;;;11.95;5.35;;;11.70;62.20;;;;;;20843122;28;20493;-57
2021/04/30 06:36:24;;;;;;;10.35;5.20;;;11.90;62.00;;;;;;20857280;28;20073;-56
2021/04/30 06:46:27;;;;;;;14.65;6.57;;;12.10;61.40;;;;;;20840615;28;20140;-57
2021/04/30 06:56:29;;;;;;;10.73;5.82;;;12.30;60.60;;;;;;20839471;28;20184;-58
2021/04/30 07:06:30;;;;;;;13.35;5.65;;;12.50;60.20;;;;;;20839091;28;20141;-58
2021/04/30 07:16:32;;;;;;;10.93;4.95;;;12.80;59.40;;;;;;20840514;28;20076;-57
2021/04/30 07:26:33;;;;;;;13.75;5.47;;;13.10;58.90;;;;;;20857061;28;20100;-57
2021/04/30 07:36:35;;;;;;;10.77;5.30;;;13.90;57.00;;;;;;20838165;28;20045;-67
2021/04/30 07:46:36;;;;;;;15.10;6.63;;;14.10;56.10;;;;;;20836769;28;20474;-57
2021/04/30 07:56:37;;;;;;;9.52;4.70;;;14.10;56.10;;;;;;20836329;28;20491;-65
2021/04/30 08:06:39;;;;;;;11.55;5.63;;;14.40;55.30;;;;;;20835074;28;20049;-67
2021/04/30 08:16:40;;;;;;;10.25;5.40;;;15.10;53.70;;;;;;20836955;28;20052;-64
2021/04/30 08:26:41;;;;;;;6.65;4.22;;;15.20;53.30;;;;;;20840007;28;20501;-67
2021/04/30 08:36:42;;;;;;;5.53;3.97;;;15.90;52.00;;;;;;20838327;28;20057;-57
2021/04/30 08:46:44;;;;;;;9.95;4.55;;;16.40;51.90;;;;;;20834110;28;20110;-66
2021/04/30 08:56:54;;;;;;;6.95;4.28;;;16.70;50.20;;;;;;20831246;28;20509;-66
2021/04/30 09:06:55;;;;;;;9.13;4.63;;;17.00;49.30;;;;;;20830516;28;20542;-67
2021/04/30 09:17:12;;;;;;;4.40;2.47;;;17.20;48.40;;;;;;20828967;28;20061;-60
2021/04/30 09:27:13;;;;;;;5.88;3.20;;;17.90;50.80;;;;;;20829116;28;20096;-55
2021/04/30 09:37:20;;;;;;;5.53;2.95;;;18.60;46.70;;;;;;20829568;28;20187;-55
2021/04/30 09:47:21;;;;;;;3.55;2.38;;;18.30;45.20;;;;;;20839863;28;20053;-57
2021/04/30 09:57:24;;;;;;;3.30;2.00;;;18.70;47.50;;;;;;20844214;28;20463;-56
2021/04/30 10:07:38;;;;;;;7.63;2.70;;;18.70;46.60;;;;;;20843458;28;20525;-61
2021/04/30 10:17:40;;;;;;;5.73;2.50;;;18.70;45.60;;;;;;20897983;28;20055;-57
2021/04/30 10:27:49;;;;;;;7.45;2.20;;;18.70;44.10;;;;;;20908298;28;20147;-62
2021/04/30 10:37:55;;;;;;;4.82;2.70;;;18.70;45.20;;;;;;20905153;28;20132;-64
2021/04/30 10:48:08;;;;;;;5.80;2.78;;;18.70;43.10;;;;;;20906097;28;20080;-58
2021/04/30 10:58:09;;;;;;;9.43;2.60;;;18.80;42.70;;;;;;20852755;28;20440;-60
2021/04/30 11:08:10;;;;;;;4.85;1.95;;;18.70;42.10;;;;;;20852627;28;20461;-58
2021/04/30 11:18:19;;;;;;;9.13;2.65;;;19.00;40.00;;;;;;20896654;28;20083;-60
2021/04/30 11:28:20;;;;;;;5.18;2.30;;;19.00;41.40;;;;;;20890219;28;20151;-58
2021/04/30 11:38:43;;;;;;;6.13;2.50;;;19.10;39.10;;;;;;20919276;28;20168;-63
2021/04/30 11:48:45;;;;;;;10.50;6.82;;;19.50;36.60;;;;;;20918295;28;20045;-66
2021/04/30 11:58:50;;;;;;;3.78;1.45;;;19.40;35.70;;;;;;20918558;28;20136;-63
2021/04/30 12:08:53;;;;;;;4.75;2.15;;;19.40;35.50;;;;;;20915514;28;20053;-60
2021/04/30 12:18:56;;;;;;;3.90;2.40;;;19.40;35.10;;;;;;20916824;28;20064;-57
2021/04/30 12:28:59;;;;;;;5.22;1.67;;;19.60;35.30;;;;;;20916438;28;20137;-58
2021/04/30 12:39:05;;;;;;;4.30;1.67;;;19.40;35.00;;;;;;20917048;28;20072;-64
2021/04/30 12:49:13;;;;;;;2.78;1.70;;;19.70;34.80;;;;;;20914109;28;20089;-57
2021/04/30 12:59:21;;;;;;;3.00;1.63;;;19.60;34.90;;;;;;20913654;28;20067;-62
2021/04/30 13:09:24;;;;;;;3.00;1.58;;;19.60;34.70;;;;;;20911925;28;20052;-64
2021/04/30 13:19:27;;;;;;;4.95;1.67;;;20.00;34.40;;;;;;20912883;28;20167;-54
2021/04/30 13:29:29;;;;;;;5.90;2.10;;;20.10;33.90;;;;;;20911515;28;20067;-60
2021/04/30 13:39:33;;;;;;;5.65;1.40;;;20.00;34.30;;;;;;20912402;28;20049;-56
2021/04/30 13:49:48;;;;;;;;;;;20.00;34.50;;;;;;20911399;28;20076;-64
2021/04/30 13:59:49;;;;;;;4.18;1.60;;;19.90;34.10;;;;;;20911533;28;19943;-66
2021/04/30 14:09:51;;;;;;;2.33;1.00;;;20.00;33.60;;;;;;20913912;28;20045;-66
2021/04/30 14:19:52;;;;;;;3.67;2.30;;;20.10;34.10;;;;;;20909781;28;20047;-65
2021/04/30 14:29:53;;;;;;;3.63;1.25;;;20.10;34.20;;;;;;20913341;28;20529;-65
2021/04/30 14:39:55;;;;;;;2.80;0.90;;;20.00;33.90;;;;;;20924373;28;20450;-55
2021/04/30 14:49:56;;;;;;;3.53;1.27;;;19.90;34.30;;;;;;20923219;28;20199;-55
2021/04/30 14:59:57;;;;;;;4.13;2.25;;;19.80;34.00;;;;;;20922839;28;20388;-65
2021/04/30 15:09:58;;;;;;;3.42;1.50;;;19.90;33.70;;;;;;20923250;28;20044;-55
2021/04/30 15:20:00;;;;;;;3.22;1.70;;;19.80;34.00;;;;;;20921568;28;20549;-56
2021/04/30 15:30:01;;;;;;;3.08;1.30;;;19.60;34.40;;;;;;20920529;28;20085;-64
2021/04/30 15:40:03;;;;;;;2.83;1.20;;;19.80;34.20;;;;;;20918876;28;20505;-65
2021/04/30 15:50:07;;;;;;;3.75;0.95;;;20.00;33.20;;;;;;20934726;28;20056;-57
2021/04/30 16:00:11;;;;;;;5.68;1.63;;;20.10;32.80;;;;;;20910476;28;20049;-54
2021/04/30 16:10:12;;;;;;;2.95;1.02;;;20.10;33.30;;;;;;20916683;28;20490;-56
2021/04/30 16:20:15;;;;;;;2.40;1.23;;;20.00;32.50;;;;;;20916444;28;20044;-56
2021/04/30 16:30:17;;;;;;;3.93;1.10;;;20.10;32.30;;;;;;20915375;28;20053;-62
2021/04/30 16:40:18;;;;;;;2.67;1.30;;;19.90;33.00;;;;;;20915825;28;20044;-56
2021/04/30 16:50:20;;;;;;;4.22;1.35;;;19.80;33.70;;;;;;20912763;28;20087;-59
2021/04/30 17:00:21;;;;;;;2.75;1.05;;;19.80;33.40;;;;;;20912573;28;20080;-55
2021/04/30 17:10:23;;;;;;;3.78;1.65;;;19.70;32.00;;;;;;20912554;28;20107;-64
2021/04/30 17:20:24;;;;;;;3.92;1.00;;;19.60;33.30;;;;;;20911500;28;20084;-62
2021/04/30 17:30:26;;;;;;;3.97;1.67;;;19.40;32.60;;;;;;20911022;28;20091;-64
2021/04/30 17:40:28;;;;;;;4.28;2.42;;;19.20;33.90;;;;;;20911233;28;20041;-64
2021/04/30 17:50:30;;;;;;;3.83;1.30;;;19.00;35.60;;;;;;20910661;28;20056;-60
2021/04/30 18:00:32;;;;;;;2.60;1.20;;;18.60;38.20;;;;;;20911643;28;20095;-66
2021/04/30 18:10:33;;;;;;;2.53;1.20;;;18.40;39.30;;;;;;20923191;28;20107;-65
2021/04/30 18:20:35;;;;;;;4.45;1.52;;;18.30;40.30;;;;;;20926736;28;20477;-61
2021/04/30 18:30:36;;;;;;;8.10;1.60;;;18.00;40.40;;;;;;20924844;28;20068;-56
2021/04/30 18:40:37;;;;;;;2.90;1.30;;;17.70;41.50;;;;;;20922841;28;20048;-57
2021/04/30 18:50:40;;;;;;;3.55;1.30;;;17.40;44.80;;;;;;20914905;28;20397;-53
2021/04/30 19:00:42;;;;;;;2.10;1.30;;;18.00;45.80;;;;;;20893611;28;20111;-60
2021/04/30 19:10:43;;;;;;;3.45;1.67;;;17.90;44.10;;;;;;20855319;28;20056;-55
2021/04/30 19:20:44;;;;;;;3.45;1.40;;;17.70;42.40;;;;;;20839606;28;20046;-55
2021/04/30 19:30:46;;;;;;;2.72;0.90;;;16.70;42.80;;;;;;20836749;28;20057;-59
2021/04/30 19:40:47;;;;;;;1.25;0.70;;;16.00;44.10;;;;;;20838096;28;20049;-55
2021/04/30 19:50:50;;;;;;;2.28;1.10;;;15.60;44.70;;;;;;20836902;28;20362;-56
2021/04/30 20:00:54;;;;;;;2.80;1.30;;;15.40;45.10;;;;;;20836465;28;20410;-62
2021/04/30 20:10:55;;;;;;;;;;;15.20;45.70;;;;;;20836417;28;20088;-56
2021/04/30 20:20:57;;;;;;;3.22;1.65;;;15.00;46.00;;;;;;20836021;28;19928;-58
2021/04/30 20:30:58;;;;;;;5.90;2.50;;;15.00;46.70;;;;;;20833616;28;20057;-58
2021/04/30 20:40:59;;;;;;;3.97;1.92;;;14.80;47.10;;;;;;20833504;28;20081;-54
2021/04/30 20:51:00;;;;;;;4.15;2.17;;;14.70;47.80;;;;;;20832316;28;20049;-54
2021/04/30 21:01:02;;;;;;;2.83;1.80;;;14.70;47.80;;;;;;20831909;28;20121;-55
2021/04/30 21:11:03;;;;;;;3.40;1.38;;;14.70;47.90;;;;;;20830683;28;20128;-54
2021/04/30 21:21:05;;;;;;;3.55;1.77;;;14.70;48.00;;;;;;20830502;28;20049;-55
2021/04/30 21:31:07;;;;;;;3.53;1.70;;;14.70;48.20;;;;;;20830466;28;20093;-60
2021/04/30 21:41:08;;;;;;;3.33;2.08;;;14.70;48.60;;;;;;20830352;28;20049;-62
2021/04/30 21:51:10;;;;;;;4.32;2.28;;;14.70;48.70;;;;;;20829865;28;20477;-52
2021/04/30 22:01:34;;;;;;;3.40;1.80;;;14.40;49.10;;;;;;20828830;28;20087;-64
2021/04/30 22:11:36;;;;;;;4.75;1.65;;;14.40;49.30;;;;;;20826991;28;20433;-55
2021/04/30 22:21:38;;;;;;;3.85;1.83;;;14.20;49.80;;;;;;20827404;28;20092;-55
2021/04/30 22:31:39;;;;;;;2.85;2.13;;;14.10;50.10;;;;;;20826802;28;20061;-54
2021/04/30 22:41:44;;;;;;;2.90;1.48;;;14.10;50.20;;;;;;20825978;28;20560;-52
2021/04/30 22:51:45;;;;;;;1.80;0.97;;;13.90;50.90;;;;;;20832684;28;20135;-57
2021/04/30 23:01:46;;;;;;;3.03;1.50;;;13.90;50.50;;;;;;20840352;28;20376;-55
2021/04/30 23:11:47;;;;;;;8.95;5.55;;;13.70;51.00;;;;;;20839538;28;20058;-54
2021/04/30 23:21:49;;;;;;;2.75;1.70;;;13.80;51.00;;;;;;20839510;28;20489;-56
2021/04/30 23:31:50;;;;;;;2.25;1.40;;;13.70;51.10;;;;;;20838846;28;20417;-54
2021/04/30 23:41:51;;;;;;;3.08;1.60;;;13.80;51.30;;;;;;20838186;28;20061;-55
2021/04/30 23:51:53;;;;;;;1.80;1.20;;;13.90;51.40;;;;;;20837148;28;20049;-54
